sensor_id;sensor_type;location;lat;lon;timestamp;P1;durP1;ratioP1;P2;durP2;ratioP2
20954;SDS011;10636;19.390;-99.256;2022-09-04T00:01:01;2.67;;;1.02;;
20954;SDS011;10636;19.390;-99.256;2022-09-04T00:03:37;1.95;;;1.00;;
20954;SDS011;10636;19.390;-99.256;2022-09-04T00:06:14;0.93;;;0.90;;
20954;SDS011;10636;19.390;-99.256;2022-09-04T00:08:56;1.73;;;1.00;;
20954;SDS011;10636;19.390;-99.256;2022-09-04T00:11:38;1.20;;;1.10;;
20954;SDS011;10636;19.390;-99.256;2022-09-04T00:14:17;2.25;;;1.20;;
20954;SDS011;10636;19.390;-99.256;2022-09-04T00:16:50;3.33;;;1.10;;
20954;SDS011;10636;19.390;-99.256;2022-09-04T00:19:28;2.60;;;1.20;;
20954;SDS011;10636;19.390;-99.256;2022-09-04T00:21:59;2.78;;;1.38;;
20954;SDS011;10636;19.390;-99.256;2022-09-04T00:24:34;1.30;;;1.20;;
20954;SDS011;10636;19.390;-99.256;2022-09-04T00:27:07;2.17;;;1.40;;
20954;SDS011;10636;19.390;-99.256;2022-09-04T00:29:42;1.48;;;1.20;;
20954;SDS011;10636;19.390;-99.256;2022-09-04T00:32:22;1.17;;;1.00;;
20954;SDS011;10636;19.390;-99.256;2022-09-04T00:34:58;1.70;;;1.20;;
20954;SDS011;10636;19.390;-99.256;2022-09-04T00:37:36;4.85;;;1.20;;
20954;SDS011;10636;19.390;-99.256;2022-09-04T00:40:13;1.80;;;1.02;;
20954;SDS011;10636;19.390;-99.256;2022-09-04T00:42:53;2.70;;;1.30;;
20954;SDS011;10636;19.390;-99.256;2022-09-04T00:46:00;3.72;;;1.30;;
20954;SDS011;10636;19.390;-99.256;2022-09-04T00:48:57;1.40;;;1.00;;
20954;SDS011;10636;19.390;-99.256;2022-09-04T00:51:57;2.13;;;1.30;;
20954;SDS011;10636;19.390;-99.256;2022-09-04T00:54:42;2.60;;;1.20;;
20954;SDS011;10636;19.390;-99.256;2022-09-04T00:57:28;1.52;;;1.30;;
20954;SDS011;10636;19.390;-99.256;2022-09-04T01:00:14;1.80;;;1.17;;
20954;SDS011;10636;19.390;-99.256;2022-09-04T01:02:55;4.28;;;1.17;;
20954;SDS011;10636;19.390;-99.256;2022-09-04T01:06:00;3.05;;;1.00;;
20954;SDS011;10636;19.390;-99.256;2022-09-04T01:08:40;1.70;;;1.00;;
20954;SDS011;10636;19.390;-99.256;2022-09-04T01:11:25;0.90;;;0.80;;
20954;SDS011;10636;19.390;-99.256;2022-09-04T01:14:04;1.65;;;1.00;;
20954;SDS011;10636;19.390;-99.256;2022-09-04T01:16:43;2.08;;;1.10;;
20954;SDS011;10636;19.390;-99.256;2022-09-04T01:19:22;1.30;;;1.15;;
20954;SDS011;10636;19.390;-99.256;2022-09-04T01:22:12;2.20;;;1.10;;
20954;SDS011;10636;19.390;-99.256;2022-09-04T01:25:02;1.85;;;1.20;;
20954;SDS011;10636;19.390;-99.256;2022-09-04T01:27:42;1.83;;;1.15;;
20954;SDS011;10636;19.390;-99.256;2022-09-04T01:30:19;2.50;;;1.08;;
20954;SDS011;10636;19.390;-99.256;2022-09-04T01:32:54;2.22;;;1.10;;
20954;SDS011;10636;19.390;-99.256;2022-09-04T01:35:29;1.10;;;1.05;;
20954;SDS011;10636;19.390;-99.256;2022-09-04T01:38:05;1.52;;;1.30;;
20954;SDS011;10636;19.390;-99.256;2022-09-04T01:40:43;1.38;;;1.27;;
20954;SDS011;10636;19.390;-99.256;2022-09-04T01:43:18;2.10;;;1.60;;
20954;SDS011;10636;19.390;-99.256;2022-09-04T01:45:58;2.33;;;1.80;;
20954;SDS011;10636;19.390;-99.256;2022-09-04T01:48:44;2.85;;;2.10;;
20954;SDS011;10636;19.390;-99.256;2022-09-04T01:51:20;2.10;;;1.90;;
20954;SDS011;10636;19.390;-99.256;2022-09-04T01:53:58;1.83;;;1.73;;
20954;SDS011;10636;19.390;-99.256;2022-09-04T01:56:40;1.73;;;1.52;;
20954;SDS011;10636;19.390;-99.256;2022-09-04T01:59:17;2.53;;;1.50;;
20954;SDS011;10636;19.390;-99.256;2022-09-04T02:01:52;2.00;;;1.40;;
20954;SDS011;10636;19.390;-99.256;2022-09-04T02:04:27;1.70;;;1.50;;
20954;SDS011;10636;19.390;-99.256;2022-09-04T02:07:09;1.85;;;1.70;;
20954;SDS011;10636;19.390;-99.256;2022-09-04T02:09:46;1.60;;;1.40;;
20954;SDS011;10636;19.390;-99.256;2022-09-04T02:12:26;2.80;;;1.45;;
20954;SDS011;10636;19.390;-99.256;2022-09-04T02:15:05;1.67;;;1.15;;
20954;SDS011;10636;19.390;-99.256;2022-09-04T02:17:41;1.52;;;1.33;;
20954;SDS011;10636;19.390;-99.256;2022-09-04T02:20:20;2.38;;;1.42;;
20954;SDS011;10636;19.390;-99.256;2022-09-04T02:22:53;1.77;;;1.33;;
20954;SDS011;10636;19.390;-99.256;2022-09-04T02:25:31;2.50;;;1.45;;
20954;SDS011;10636;19.390;-99.256;2022-09-04T02:28:07;1.52;;;1.20;;
20954;SDS011;10636;19.390;-99.256;2022-09-04T02:30:50;1.80;;;1.35;;
20954;SDS011;10636;19.390;-99.256;2022-09-04T02:33:28;1.58;;;1.40;;
20954;SDS011;10636;19.390;-99.256;2022-09-04T02:36:06;2.13;;;1.35;;
20954;SDS011;10636;19.390;-99.256;2022-09-04T02:38:41;2.35;;;1.30;;
20954;SDS011;10636;19.390;-99.256;2022-09-04T02:41:19;1.65;;;1.45;;
20954;SDS011;10636;19.390;-99.256;2022-09-04T02:43:59;1.40;;;1.30;;
20954;SDS011;10636;19.390;-99.256;2022-09-04T02:46:52;1.52;;;1.40;;
20954;SDS011;10636;19.390;-99.256;2022-09-04T02:49:28;1.40;;;1.30;;
20954;SDS011;10636;19.390;-99.256;2022-09-04T02:52:08;1.33;;;1.23;;
20954;SDS011;10636;19.390;-99.256;2022-09-04T02:54:49;2.47;;;1.30;;
20954;SDS011;10636;19.390;-99.256;2022-09-04T02:57:36;1.45;;;1.23;;
20954;SDS011;10636;19.390;-99.256;2022-09-04T03:00:15;2.00;;;1.30;;
20954;SDS011;10636;19.390;-99.256;2022-09-04T03:02:49;1.60;;;1.20;;
20954;SDS011;10636;19.390;-99.256;2022-09-04T03:05:23;1.40;;;1.10;;
20954;SDS011;10636;19.390;-99.256;2022-09-04T03:07:56;1.65;;;1.20;;
20954;SDS011;10636;19.390;-99.256;2022-09-04T03:10:32;1.55;;;1.10;;
20954;SDS011;10636;19.390;-99.256;2022-09-04T03:13:07;1.85;;;1.15;;
20954;SDS011;10636;19.390;-99.256;2022-09-04T03:15:43;1.48;;;1.10;;
20954;SDS011;10636;19.390;-99.256;2022-09-04T03:18:21;2.15;;;1.17;;
20954;SDS011;10636;19.390;-99.256;2022-09-04T03:20:56;1.27;;;1.10;;
20954;SDS011;10636;19.390;-99.256;2022-09-04T03:23:29;1.20;;;1.10;;
20954;SDS011;10636;19.390;-99.256;2022-09-04T03:26:10;2.55;;;1.30;;
20954;SDS011;10636;19.390;-99.256;2022-09-04T03:28:49;1.30;;;1.20;;
20954;SDS011;10636;19.390;-99.256;2022-09-04T03:31:28;1.30;;;1.20;;
20954;SDS011;10636;19.390;-99.256;2022-09-04T03:34:05;1.90;;;1.10;;
20954;SDS011;10636;19.390;-99.256;2022-09-04T03:36:58;1.70;;;1.13;;
20954;SDS011;10636;19.390;-99.256;2022-09-04T03:39:38;1.60;;;1.17;;
20954;SDS011;10636;19.390;-99.256;2022-09-04T03:42:13;1.08;;;0.98;;
20954;SDS011;10636;19.390;-99.256;2022-09-04T03:44:52;1.60;;;1.13;;
20954;SDS011;10636;19.390;-99.256;2022-09-04T03:47:36;2.47;;;1.23;;
20954;SDS011;10636;19.390;-99.256;2022-09-04T03:50:21;1.10;;;1.00;;
20954;SDS011;10636;19.390;-99.256;2022-09-04T03:52:56;1.40;;;1.10;;
20954;SDS011;10636;19.390;-99.256;2022-09-04T03:55:53;1.30;;;1.20;;
20954;SDS011;10636;19.390;-99.256;2022-09-04T03:58:34;1.38;;;1.27;;
20954;SDS011;10636;19.390;-99.256;2022-09-04T04:01:14;1.85;;;1.17;;
20954;SDS011;10636;19.390;-99.256;2022-09-04T04:03:58;2.45;;;1.40;;
20954;SDS011;10636;19.390;-99.256;2022-09-04T04:06:47;2.47;;;1.20;;
20954;SDS011;10636;19.390;-99.256;2022-09-04T04:09:24;1.65;;;1.10;;
20954;SDS011;10636;19.390;-99.256;2022-09-04T04:12:10;1.40;;;1.23;;
20954;SDS011;10636;19.390;-99.256;2022-09-04T04:15:01;1.30;;;1.20;;
20954;SDS011;10636;19.390;-99.256;2022-09-04T04:17:42;1.10;;;1.00;;
20954;SDS011;10636;19.390;-99.256;2022-09-04T04:20:29;1.52;;;1.33;;
20954;SDS011;10636;19.390;-99.256;2022-09-04T04:23:12;1.20;;;1.10;;
20954;SDS011;10636;19.390;-99.256;2022-09-04T04:26:06;2.15;;;1.30;;
20954;SDS011;10636;19.390;-99.256;2022-09-04T04:28:43;2.97;;;1.27;;
20954;SDS011;10636;19.390;-99.256;2022-09-04T04:31:30;1.10;;;1.10;;
20954;SDS011;10636;19.390;-99.256;2022-09-04T04:34:37;2.90;;;1.50;;
20954;SDS011;10636;19.390;-99.256;2022-09-04T04:37:15;2.78;;;1.23;;
20954;SDS011;10636;19.390;-99.256;2022-09-04T04:39:56;1.88;;;1.17;;
20954;SDS011;10636;19.390;-99.256;2022-09-04T04:42:31;1.55;;;1.30;;
20954;SDS011;10636;19.390;-99.256;2022-09-04T04:45:17;2.20;;;1.40;;
20954;SDS011;10636;19.390;-99.256;2022-09-04T04:48:12;1.98;;;1.40;;
20954;SDS011;10636;19.390;-99.256;2022-09-04T04:51:17;2.13;;;1.30;;
20954;SDS011;10636;19.390;-99.256;2022-09-04T04:54:11;2.67;;;1.60;;
20954;SDS011;10636;19.390;-99.256;2022-09-04T04:56:52;2.50;;;1.50;;
20954;SDS011;10636;19.390;-99.256;2022-09-04T04:59:29;2.83;;;1.42;;
20954;SDS011;10636;19.390;-99.256;2022-09-04T05:02:08;2.50;;;1.50;;
20954;SDS011;10636;19.390;-99.256;2022-09-04T05:04:48;2.50;;;1.60;;
20954;SDS011;10636;19.390;-99.256;2022-09-04T05:07:25;2.67;;;1.60;;
20954;SDS011;10636;19.390;-99.256;2022-09-04T05:10:03;1.77;;;1.30;;
20954;SDS011;10636;19.390;-99.256;2022-09-04T05:12:47;2.20;;;1.35;;
20954;SDS011;10636;19.390;-99.256;2022-09-04T05:15:27;1.75;;;1.30;;
20954;SDS011;10636;19.390;-99.256;2022-09-04T05:18:03;1.70;;;1.30;;
20954;SDS011;10636;19.390;-99.256;2022-09-04T05:20:41;1.67;;;1.20;;
20954;SDS011;10636;19.390;-99.256;2022-09-04T05:23:21;2.75;;;1.50;;
20954;SDS011;10636;19.390;-99.256;2022-09-04T05:25:57;1.92;;;1.40;;
20954;SDS011;10636;19.390;-99.256;2022-09-04T05:28:38;1.45;;;1.23;;
20954;SDS011;10636;19.390;-99.256;2022-09-04T05:31:17;1.77;;;1.15;;
20954;SDS011;10636;19.390;-99.256;2022-09-04T05:33:52;1.27;;;1.05;;
20954;SDS011;10636;19.390;-99.256;2022-09-04T05:36:28;1.58;;;1.38;;
20954;SDS011;10636;19.390;-99.256;2022-09-04T05:39:08;1.67;;;1.10;;
20954;SDS011;10636;19.390;-99.256;2022-09-04T05:44:53;1.30;;;1.20;;
20954;SDS011;10636;19.390;-99.256;2022-09-04T05:47:30;1.90;;;1.33;;
20954;SDS011;10636;19.390;-99.256;2022-09-04T05:50:22;2.13;;;1.38;;
20954;SDS011;10636;19.390;-99.256;2022-09-04T05:53:32;1.80;;;1.25;;
20954;SDS011;10636;19.390;-99.256;2022-09-04T05:56:27;1.60;;;1.20;;
20954;SDS011;10636;19.390;-99.256;2022-09-04T05:59:10;1.27;;;1.17;;
20954;SDS011;10636;19.390;-99.256;2022-09-04T06:02:09;1.58;;;1.30;;
20954;SDS011;10636;19.390;-99.256;2022-09-04T06:05:06;1.67;;;1.30;;
20954;SDS011;10636;19.390;-99.256;2022-09-04T06:07:59;2.10;;;1.30;;
20954;SDS011;10636;19.390;-99.256;2022-09-04T06:10:36;1.20;;;1.10;;
20954;SDS011;10636;19.390;-99.256;2022-09-04T06:13:27;1.73;;;1.20;;
20954;SDS011;10636;19.390;-99.256;2022-09-04T06:16:28;1.27;;;1.17;;
20954;SDS011;10636;19.390;-99.256;2022-09-04T06:19:22;1.73;;;1.20;;
20954;SDS011;10636;19.390;-99.256;2022-09-04T06:22:07;1.58;;;1.35;;
20954;SDS011;10636;19.390;-99.256;2022-09-04T06:24:55;1.38;;;1.10;;
20954;SDS011;10636;19.390;-99.256;2022-09-04T06:27:52;1.58;;;1.40;;
20954;SDS011;10636;19.390;-99.256;2022-09-04T06:30:45;3.28;;;1.33;;
20954;SDS011;10636;19.390;-99.256;2022-09-04T06:33:28;2.30;;;1.42;;
20954;SDS011;10636;19.390;-99.256;2022-09-04T06:36:25;1.80;;;1.45;;
20954;SDS011;10636;19.390;-99.256;2022-09-04T06:39:21;1.88;;;1.35;;
20954;SDS011;10636;19.390;-99.256;2022-09-04T06:42:03;2.13;;;1.23;;
20954;SDS011;10636;19.390;-99.256;2022-09-04T06:44:49;1.88;;;1.40;;
20954;SDS011;10636;19.390;-99.256;2022-09-04T06:47:30;1.88;;;1.45;;
20954;SDS011;10636;19.390;-99.256;2022-09-04T06:50:14;2.38;;;1.40;;
20954;SDS011;10636;19.390;-99.256;2022-09-04T06:52:55;2.00;;;1.13;;
20954;SDS011;10636;19.390;-99.256;2022-09-04T06:55:36;1.42;;;1.20;;
20954;SDS011;10636;19.390;-99.256;2022-09-04T06:58:16;1.90;;;1.40;;
20954;SDS011;10636;19.390;-99.256;2022-09-04T07:01:09;2.17;;;1.33;;
20954;SDS011;10636;19.390;-99.256;2022-09-04T07:03:48;1.58;;;1.48;;
20954;SDS011;10636;19.390;-99.256;2022-09-04T07:06:28;1.60;;;1.48;;
20954;SDS011;10636;19.390;-99.256;2022-09-04T07:09:14;1.50;;;1.40;;
20954;SDS011;10636;19.390;-99.256;2022-09-04T07:11:54;2.40;;;1.40;;
20954;SDS011;10636;19.390;-99.256;2022-09-04T07:14:42;2.20;;;1.40;;
20954;SDS011;10636;19.390;-99.256;2022-09-04T07:17:26;2.40;;;1.60;;
20954;SDS011;10636;19.390;-99.256;2022-09-04T07:20:09;1.50;;;1.38;;
20954;SDS011;10636;19.390;-99.256;2022-09-04T07:25:43;1.27;;;1.17;;
20954;SDS011;10636;19.390;-99.256;2022-09-04T07:28:26;2.83;;;1.30;;
20954;SDS011;10636;19.390;-99.256;2022-09-04T07:31:03;1.58;;;1.35;;
20954;SDS011;10636;19.390;-99.256;2022-09-04T07:33:39;2.25;;;1.30;;
20954;SDS011;10636;19.390;-99.256;2022-09-04T07:36:19;1.65;;;1.38;;
20954;SDS011;10636;19.390;-99.256;2022-09-04T07:38:53;1.40;;;1.17;;
20954;SDS011;10636;19.390;-99.256;2022-09-04T07:41:30;2.10;;;1.48;;
20954;SDS011;10636;19.390;-99.256;2022-09-04T07:44:03;1.80;;;1.38;;
20954;SDS011;10636;19.390;-99.256;2022-09-04T07:46:42;1.85;;;1.52;;
20954;SDS011;10636;19.390;-99.256;2022-09-04T07:49:16;2.30;;;1.50;;
20954;SDS011;10636;19.390;-99.256;2022-09-04T07:51:51;1.75;;;1.48;;
20954;SDS011;10636;19.390;-99.256;2022-09-04T07:54:30;2.97;;;1.20;;
20954;SDS011;10636;19.390;-99.256;2022-09-04T07:57:29;1.83;;;1.40;;
20954;SDS011;10636;19.390;-99.256;2022-09-04T08:00:09;1.80;;;1.50;;
20954;SDS011;10636;19.390;-99.256;2022-09-04T08:02:54;2.13;;;1.38;;
20954;SDS011;10636;19.390;-99.256;2022-09-04T08:05:35;1.85;;;1.20;;
20954;SDS011;10636;19.390;-99.256;2022-09-04T08:08:16;1.70;;;1.30;;
20954;SDS011;10636;19.390;-99.256;2022-09-04T08:11:14;1.63;;;1.40;;
20954;SDS011;10636;19.390;-99.256;2022-09-04T08:14:19;2.38;;;1.60;;
20954;SDS011;10636;19.390;-99.256;2022-09-04T08:17:13;1.40;;;1.30;;
20954;SDS011;10636;19.390;-99.256;2022-09-04T08:19:55;1.60;;;1.40;;
20954;SDS011;10636;19.390;-99.256;2022-09-04T08:22:32;1.88;;;1.40;;
20954;SDS011;10636;19.390;-99.256;2022-09-04T08:25:22;2.05;;;1.52;;
20954;SDS011;10636;19.390;-99.256;2022-09-04T08:28:01;1.65;;;1.40;;
20954;SDS011;10636;19.390;-99.256;2022-09-04T08:30:48;2.92;;;1.70;;
20954;SDS011;10636;19.390;-99.256;2022-09-04T08:36:34;2.17;;;1.50;;
20954;SDS011;10636;19.390;-99.256;2022-09-04T08:39:12;1.45;;;1.35;;
20954;SDS011;10636;19.390;-99.256;2022-09-04T08:42:13;1.92;;;1.50;;
20954;SDS011;10636;19.390;-99.256;2022-09-04T08:45:25;1.92;;;1.73;;
20954;SDS011;10636;19.390;-99.256;2022-09-04T08:51:55;2.53;;;1.73;;
20954;SDS011;10636;19.390;-99.256;2022-09-04T08:54:55;1.90;;;1.70;;
20954;SDS011;10636;19.390;-99.256;2022-09-04T09:00:57;2.03;;;1.65;;
20954;SDS011;10636;19.390;-99.256;2022-09-04T09:03:47;1.90;;;1.58;;
20954;SDS011;10636;19.390;-99.256;2022-09-04T09:09:38;1.90;;;1.80;;
20954;SDS011;10636;19.390;-99.256;2022-09-04T09:12:48;1.73;;;1.63;;
20954;SDS011;10636;19.390;-99.256;2022-09-04T09:16:01;2.10;;;1.65;;
20954;SDS011;10636;19.390;-99.256;2022-09-04T09:21:41;2.20;;;1.70;;
20954;SDS011;10636;19.390;-99.256;2022-09-04T09:27:29;2.13;;;1.60;;
20954;SDS011;10636;19.390;-99.256;2022-09-04T09:30:35;3.10;;;1.80;;
20954;SDS011;10636;19.390;-99.256;2022-09-04T09:36:37;2.20;;;1.70;;
20954;SDS011;10636;19.390;-99.256;2022-09-04T09:39:41;2.40;;;1.52;;
20954;SDS011;10636;19.390;-99.256;2022-09-04T09:42:50;2.05;;;1.60;;
20954;SDS011;10636;19.390;-99.256;2022-09-04T09:45:42;1.75;;;1.60;;
20954;SDS011;10636;19.390;-99.256;2022-09-04T09:54:56;1.80;;;1.70;;
20954;SDS011;10636;19.390;-99.256;2022-09-04T09:58:09;1.70;;;1.60;;
20954;SDS011;10636;19.390;-99.256;2022-09-04T10:01:03;2.75;;;2.00;;
20954;SDS011;10636;19.390;-99.256;2022-09-04T10:16:23;2.20;;;1.58;;
20954;SDS011;10636;19.390;-99.256;2022-09-04T10:22:39;1.60;;;1.50;;
20954;SDS011;10636;19.390;-99.256;2022-09-04T10:25:39;2.05;;;1.40;;
20954;SDS011;10636;19.390;-99.256;2022-09-04T10:31:42;3.65;;;1.60;;
20954;SDS011;10636;19.390;-99.256;2022-09-04T10:34:27;1.98;;;1.65;;
20954;SDS011;10636;19.390;-99.256;2022-09-04T10:37:15;2.63;;;1.48;;
20954;SDS011;10636;19.390;-99.256;2022-09-04T10:40:05;2.40;;;1.77;;
20954;SDS011;10636;19.390;-99.256;2022-09-04T10:46:22;2.42;;;1.70;;
20954;SDS011;10636;19.390;-99.256;2022-09-04T10:54:58;1.83;;;1.60;;
20954;SDS011;10636;19.390;-99.256;2022-09-04T10:58:03;2.10;;;1.58;;
20954;SDS011;10636;19.390;-99.256;2022-09-04T11:00:41;1.48;;;1.30;;
20954;SDS011;10636;19.390;-99.256;2022-09-04T11:03:33;2.10;;;1.50;;
20954;SDS011;10636;19.390;-99.256;2022-09-04T11:06:29;2.22;;;1.50;;
20954;SDS011;10636;19.390;-99.256;2022-09-04T11:15:29;1.67;;;1.50;;
20954;SDS011;10636;19.390;-99.256;2022-09-04T11:24:50;1.60;;;1.40;;
20954;SDS011;10636;19.390;-99.256;2022-09-04T11:27:46;1.60;;;1.50;;
20954;SDS011;10636;19.390;-99.256;2022-09-04T11:30:34;2.05;;;1.58;;
20954;SDS011;10636;19.390;-99.256;2022-09-04T11:36:36;1.77;;;1.40;;
20954;SDS011;10636;19.390;-99.256;2022-09-04T11:42:58;1.60;;;1.40;;
20954;SDS011;10636;19.390;-99.256;2022-09-04T11:48:41;1.30;;;1.20;;
20954;SDS011;10636;19.390;-99.256;2022-09-04T11:51:42;1.40;;;1.30;;
20954;SDS011;10636;19.390;-99.256;2022-09-04T11:54:46;1.35;;;1.20;;
20954;SDS011;10636;19.390;-99.256;2022-09-04T11:57:31;2.22;;;1.50;;
20954;SDS011;10636;19.390;-99.256;2022-09-04T12:00:14;1.45;;;1.27;;
20954;SDS011;10636;19.390;-99.256;2022-09-04T12:05:54;1.75;;;1.50;;
20954;SDS011;10636;19.390;-99.256;2022-09-04T12:08:43;2.00;;;1.30;;
20954;SDS011;10636;19.390;-99.256;2022-09-04T12:11:29;1.50;;;1.38;;
20954;SDS011;10636;19.390;-99.256;2022-09-04T12:14:26;1.85;;;1.40;;
20954;SDS011;10636;19.390;-99.256;2022-09-04T12:20:12;1.80;;;1.45;;
20954;SDS011;10636;19.390;-99.256;2022-09-04T12:23:04;1.52;;;1.42;;
20954;SDS011;10636;19.390;-99.256;2022-09-04T12:26:11;1.55;;;1.45;;
20954;SDS011;10636;19.390;-99.256;2022-09-04T12:32:09;1.70;;;1.50;;
20954;SDS011;10636;19.390;-99.256;2022-09-04T12:35:08;1.95;;;1.73;;
20954;SDS011;10636;19.390;-99.256;2022-09-04T12:41:14;2.70;;;1.80;;
20954;SDS011;10636;19.390;-99.256;2022-09-04T12:43:49;2.20;;;1.42;;
20954;SDS011;10636;19.390;-99.256;2022-09-04T12:46:32;2.47;;;1.70;;
20954;SDS011;10636;19.390;-99.256;2022-09-04T12:49:28;2.28;;;1.50;;
20954;SDS011;10636;19.390;-99.256;2022-09-04T12:52:13;2.25;;;1.73;;
20954;SDS011;10636;19.390;-99.256;2022-09-04T12:54:58;2.65;;;1.80;;
20954;SDS011;10636;19.390;-99.256;2022-09-04T12:57:38;1.90;;;1.67;;
20954;SDS011;10636;19.390;-99.256;2022-09-04T13:00:20;2.47;;;1.60;;
20954;SDS011;10636;19.390;-99.256;2022-09-04T13:02:55;2.10;;;1.58;;
20954;SDS011;10636;19.390;-99.256;2022-09-04T13:05:40;2.90;;;1.70;;
20954;SDS011;10636;19.390;-99.256;2022-09-04T13:08:22;2.42;;;1.75;;
20954;SDS011;10636;19.390;-99.256;2022-09-04T13:10:59;2.15;;;1.80;;
20954;SDS011;10636;19.390;-99.256;2022-09-04T13:13:44;2.42;;;1.77;;
20954;SDS011;10636;19.390;-99.256;2022-09-04T13:16:23;3.00;;;2.00;;
20954;SDS011;10636;19.390;-99.256;2022-09-04T13:18:58;2.85;;;1.80;;
20954;SDS011;10636;19.390;-99.256;2022-09-04T13:21:49;2.13;;;1.92;;
20954;SDS011;10636;19.390;-99.256;2022-09-04T13:24:31;2.50;;;1.70;;
20954;SDS011;10636;19.390;-99.256;2022-09-04T13:27:13;2.08;;;1.77;;
20954;SDS011;10636;19.390;-99.256;2022-09-04T13:29:57;2.50;;;1.60;;
20954;SDS011;10636;19.390;-99.256;2022-09-04T13:32:38;4.05;;;1.98;;
20954;SDS011;10636;19.390;-99.256;2022-09-04T13:35:19;2.25;;;1.75;;
20954;SDS011;10636;19.390;-99.256;2022-09-04T13:38:05;3.47;;;1.98;;
20954;SDS011;10636;19.390;-99.256;2022-09-04T13:40:57;2.85;;;2.00;;
20954;SDS011;10636;19.390;-99.256;2022-09-04T13:43:51;4.03;;;2.00;;
20954;SDS011;10636;19.390;-99.256;2022-09-04T13:46:36;3.47;;;1.92;;
20954;SDS011;10636;19.390;-99.256;2022-09-04T13:49:11;4.10;;;2.20;;
20954;SDS011;10636;19.390;-99.256;2022-09-04T13:51:43;4.40;;;2.10;;
20954;SDS011;10636;19.390;-99.256;2022-09-04T13:54:17;2.55;;;2.00;;
20954;SDS011;10636;19.390;-99.256;2022-09-04T13:56:52;2.72;;;1.60;;
20954;SDS011;10636;19.390;-99.256;2022-09-04T13:59:25;2.05;;;1.90;;
20954;SDS011;10636;19.390;-99.256;2022-09-04T14:01:55;3.05;;;1.90;;
20954;SDS011;10636;19.390;-99.256;2022-09-04T14:04:30;3.65;;;1.75;;
20954;SDS011;10636;19.390;-99.256;2022-09-04T14:07:06;2.95;;;2.05;;
20954;SDS011;10636;19.390;-99.256;2022-09-04T14:09:42;3.72;;;2.30;;
20954;SDS011;10636;19.390;-99.256;2022-09-04T14:12:28;4.25;;;2.45;;
20954;SDS011;10636;19.390;-99.256;2022-09-04T14:15:20;3.63;;;2.38;;
20954;SDS011;10636;19.390;-99.256;2022-09-04T14:18:13;3.55;;;2.45;;
20954;SDS011;10636;19.390;-99.256;2022-09-04T14:20:59;3.95;;;2.70;;
20954;SDS011;10636;19.390;-99.256;2022-09-04T14:23:36;4.57;;;2.88;;
20954;SDS011;10636;19.390;-99.256;2022-09-04T14:26:16;3.33;;;2.75;;
20954;SDS011;10636;19.390;-99.256;2022-09-04T14:28:52;7.18;;;2.70;;
20954;SDS011;10636;19.390;-99.256;2022-09-04T14:31:28;3.10;;;2.50;;
20954;SDS011;10636;19.390;-99.256;2022-09-04T14:34:05;4.35;;;2.53;;
20954;SDS011;10636;19.390;-99.256;2022-09-04T14:36:43;4.93;;;2.92;;
20954;SDS011;10636;19.390;-99.256;2022-09-04T14:39:23;3.63;;;3.00;;
20954;SDS011;10636;19.390;-99.256;2022-09-04T14:42:20;5.57;;;2.90;;
20954;SDS011;10636;19.390;-99.256;2022-09-04T14:45:11;3.35;;;2.72;;
20954;SDS011;10636;19.390;-99.256;2022-09-04T14:47:49;4.22;;;2.92;;
20954;SDS011;10636;19.390;-99.256;2022-09-04T14:50:24;4.60;;;2.42;;
20954;SDS011;10636;19.390;-99.256;2022-09-04T14:53:01;3.60;;;2.53;;
20954;SDS011;10636;19.390;-99.256;2022-09-04T14:55:31;4.28;;;2.50;;
20954;SDS011;10636;19.390;-99.256;2022-09-04T14:58:02;4.38;;;2.72;;
20954;SDS011;10636;19.390;-99.256;2022-09-04T15:00:51;4.13;;;2.40;;
20954;SDS011;10636;19.390;-99.256;2022-09-04T15:03:26;3.03;;;2.67;;
20954;SDS011;10636;19.390;-99.256;2022-09-04T15:06:03;4.60;;;2.47;;
20954;SDS011;10636;19.390;-99.256;2022-09-04T15:08:40;3.72;;;2.60;;
20954;SDS011;10636;19.390;-99.256;2022-09-04T15:11:24;3.67;;;2.42;;
20954;SDS011;10636;19.390;-99.256;2022-09-04T15:13:55;5.43;;;2.65;;
20954;SDS011;10636;19.390;-99.256;2022-09-04T15:16:28;3.20;;;2.47;;
20954;SDS011;10636;19.390;-99.256;2022-09-04T15:19:19;4.05;;;2.90;;
20954;SDS011;10636;19.390;-99.256;2022-09-04T15:21:57;4.20;;;2.67;;
20954;SDS011;10636;19.390;-99.256;2022-09-04T15:24:32;5.07;;;2.83;;
20954;SDS011;10636;19.390;-99.256;2022-09-04T15:27:13;4.82;;;2.65;;
20954;SDS011;10636;19.390;-99.256;2022-09-04T15:29:54;4.25;;;2.67;;
20954;SDS011;10636;19.390;-99.256;2022-09-04T15:32:30;4.60;;;3.08;;
20954;SDS011;10636;19.390;-99.256;2022-09-04T15:35:05;3.67;;;2.80;;
20954;SDS011;10636;19.390;-99.256;2022-09-04T15:37:43;4.47;;;2.80;;
20954;SDS011;10636;19.390;-99.256;2022-09-04T15:40:19;2.83;;;2.42;;
20954;SDS011;10636;19.390;-99.256;2022-09-04T15:42:56;4.15;;;2.58;;
20954;SDS011;10636;19.390;-99.256;2022-09-04T15:45:34;3.45;;;2.97;;
20954;SDS011;10636;19.390;-99.256;2022-09-04T15:48:14;4.82;;;3.13;;
20954;SDS011;10636;19.390;-99.256;2022-09-04T15:50:59;4.53;;;3.00;;
20954;SDS011;10636;19.390;-99.256;2022-09-04T15:53:39;3.75;;;2.97;;
20954;SDS011;10636;19.390;-99.256;2022-09-04T15:56:29;5.90;;;3.30;;
20954;SDS011;10636;19.390;-99.256;2022-09-04T15:59:05;4.00;;;3.22;;
20954;SDS011;10636;19.390;-99.256;2022-09-04T16:01:44;5.40;;;3.30;;
20954;SDS011;10636;19.390;-99.256;2022-09-04T16:04:20;4.60;;;3.17;;
20954;SDS011;10636;19.390;-99.256;2022-09-04T16:06:55;4.95;;;3.50;;
20954;SDS011;10636;19.390;-99.256;2022-09-04T16:09:32;6.78;;;3.40;;
20954;SDS011;10636;19.390;-99.256;2022-09-04T16:12:08;5.43;;;3.47;;
20954;SDS011;10636;19.390;-99.256;2022-09-04T16:14:42;4.47;;;3.45;;
20954;SDS011;10636;19.390;-99.256;2022-09-04T16:17:15;4.07;;;3.45;;
20954;SDS011;10636;19.390;-99.256;2022-09-04T16:19:49;4.28;;;3.10;;
20954;SDS011;10636;19.390;-99.256;2022-09-04T16:22:27;4.43;;;2.95;;
20954;SDS011;10636;19.390;-99.256;2022-09-04T16:25:07;3.30;;;2.70;;
20954;SDS011;10636;19.390;-99.256;2022-09-04T16:27:39;3.72;;;3.28;;
20954;SDS011;10636;19.390;-99.256;2022-09-04T16:30:28;3.42;;;3.13;;
20954;SDS011;10636;19.390;-99.256;2022-09-04T16:32:59;3.65;;;2.60;;
20954;SDS011;10636;19.390;-99.256;2022-09-04T16:35:30;4.28;;;3.10;;
20954;SDS011;10636;19.390;-99.256;2022-09-04T16:38:04;3.95;;;3.10;;
20954;SDS011;10636;19.390;-99.256;2022-09-04T16:40:41;3.83;;;3.30;;
20954;SDS011;10636;19.390;-99.256;2022-09-04T16:43:17;4.30;;;2.88;;
20954;SDS011;10636;19.390;-99.256;2022-09-04T16:45:50;4.38;;;2.90;;
20954;SDS011;10636;19.390;-99.256;2022-09-04T16:48:34;4.95;;;3.10;;
20954;SDS011;10636;19.390;-99.256;2022-09-04T16:51:10;4.07;;;3.10;;
20954;SDS011;10636;19.390;-99.256;2022-09-04T16:53:49;3.60;;;3.08;;
20954;SDS011;10636;19.390;-99.256;2022-09-04T16:56:25;3.13;;;2.75;;
20954;SDS011;10636;19.390;-99.256;2022-09-04T16:59:08;4.30;;;3.30;;
20954;SDS011;10636;19.390;-99.256;2022-09-04T17:01:48;4.32;;;2.80;;
20954;SDS011;10636;19.390;-99.256;2022-09-04T17:04:25;3.42;;;2.55;;
20954;SDS011;10636;19.390;-99.256;2022-09-04T17:07:01;3.05;;;2.63;;
20954;SDS011;10636;19.390;-99.256;2022-09-04T17:09:47;4.25;;;3.00;;
20954;SDS011;10636;19.390;-99.256;2022-09-04T17:12:28;4.10;;;2.97;;
20954;SDS011;10636;19.390;-99.256;2022-09-04T17:15:06;3.70;;;2.83;;
20954;SDS011;10636;19.390;-99.256;2022-09-04T17:17:42;4.30;;;3.20;;
20954;SDS011;10636;19.390;-99.256;2022-09-04T17:20:20;3.25;;;2.95;;
20954;SDS011;10636;19.390;-99.256;2022-09-04T17:22:57;4.22;;;2.92;;
20954;SDS011;10636;19.390;-99.256;2022-09-04T17:25:37;4.35;;;3.30;;
20954;SDS011;10636;19.390;-99.256;2022-09-04T17:28:27;4.28;;;3.50;;
20954;SDS011;10636;19.390;-99.256;2022-09-04T17:31:12;3.85;;;3.10;;